Rock Creek, Illinois
Current Conditions -  °F | °C
As of 10:35 AM on Thursday 23 Oct 2014 (Local Time) from K5M9 Reporting Station
Clear Clear  
Wind Chill: 54°   Ceiling: Unl
Heat Index: 54°   Visibility: 10mi
Dew Point: 44°   Wind: 3mph
Humidity: 67%   Direction: 160°SSE
Pressure: 30.25"   Gusts: NA
Location:  37.5407°N, 88.2414°W
Report Text: K5M9 231535Z AUTO 16003KT 10SM CLR 12/06 A3025 RMK AO2 T01240064
Loading
Personal Weather Stations






























Interactive Weather Map
Tropical Storm Tracking
New forecast layout! Learn more

10-Day Weather Forecast

Advertisements
Track Severe Weather on mobile